Time;durP1;ratioP1;P1;durP2;ratioP2;P2;SDS_P1;SDS_P2;PMS_P1;PMS_P2;Temp;Humidity;BMP_temperature;BMP_pressure;BME280_temperature;BME280_humidity;BME280_pressure;Samples;Min_cycle;Max_cycle;Signal;HPM_P1;HPM_P2
2023/06/01 00:01:00;;;;;;;5.00;1.13;;;;;;;13.64;100.00;102403.78;4953309;28;20043;-66
2023/06/01 00:03:29;;;;;;;4.25;1.52;;;;;;;13.66;100.00;102393.22;4954221;28;20489;-66
2023/06/01 00:05:56;;;;;;;4.55;1.23;;;;;;;13.70;100.00;102394.88;4954218;28;20404;-66
2023/06/01 00:08:23;;;;;;;6.38;1.38;;;;;;;13.53;100.00;102391.78;4954473;28;20138;-66
2023/06/01 00:10:49;;;;;;;5.07;1.35;;;;;;;13.56;100.00;102396.97;4954998;29;20055;-66
2023/06/01 00:13:16;;;;;;;5.57;1.23;;;;;;;13.53;100.00;102394.41;4953933;29;20106;-66
2023/06/01 00:15:43;;;;;;;3.75;1.23;;;;;;;13.43;100.00;102393.78;4954301;28;20050;-66
2023/06/01 00:18:12;;;;;;;7.78;1.38;;;;;;;13.42;100.00;102389.41;4953191;28;20133;-66
2023/06/01 00:20:39;;;;;;;2.75;1.05;;;;;;;13.46;100.00;102378.78;4956719;28;20138;-66
2023/06/01 00:23:06;;;;;;;5.13;1.30;;;;;;;13.36;100.00;102377.25;4954195;28;20055;-66
2023/06/01 00:25:33;;;;;;;3.28;1.10;;;;;;;13.29;100.00;102380.91;4953770;29;20043;-66
2023/06/01 00:28:02;;;;;;;3.42;1.10;;;;;;;13.42;100.00;102389.41;4954453;29;20648;-66
2023/06/01 00:30:29;;;;;;;2.83;0.90;;;;;;;13.44;100.00;102395.53;4954010;29;20051;-67
2023/06/01 00:32:56;;;;;;;3.53;1.20;;;;;;;13.45;100.00;102395.47;4955595;28;20149;-66
2023/06/01 00:35:22;;;;;;;5.15;1.48;;;;;;;13.41;100.00;102392.97;4954238;28;20100;-66
2023/06/01 00:37:49;;;;;;;3.85;1.25;;;;;;;13.49;100.00;102391.00;4961054;28;20055;-66
2023/06/01 00:40:16;;;;;;;4.30;1.23;;;;;;;13.36;100.00;102397.47;4953652;29;20122;-66
2023/06/01 00:42:43;;;;;;;2.33;1.00;;;;;;;13.56;100.00;102397.84;4937127;29;20549;-66
2023/06/01 00:45:10;;;;;;;4.03;1.00;;;;;;;13.44;100.00;102395.53;4953149;28;20410;-66
2023/06/01 00:47:43;;;;;;;4.70;1.30;;;;;;;13.40;100.00;102397.38;4953690;29;20061;-66
2023/06/01 00:50:13;;;;;;;2.47;1.00;;;;;;;13.33;100.00;102379.09;4953260;28;20106;-67
2023/06/01 00:52:40;;;;;;;3.22;1.10;;;;;;;13.46;100.00;102396.34;4953793;29;20536;-66
2023/06/01 00:55:09;;;;;;;2.95;1.00;;;;;;;13.25;100.00;102381.88;4953082;28;20078;-66
2023/06/01 00:57:38;;;;;;;5.00;1.40;;;;;;;12.81;100.00;102373.19;4953709;28;20050;-66
2023/06/01 01:00:08;;;;;;;4.65;1.20;;;;;;;12.92;100.00;102386.97;4953698;28;20509;-67
2023/06/01 01:02:48;;;;;;;4.22;1.48;;;;;;;12.86;100.00;102397.63;4955620;28;20051;-66
2023/06/01 01:05:16;;;;;;;2.67;1.05;;;;;;;12.83;100.00;102379.28;4953338;28;20126;-66
2023/06/01 01:07:42;;;;;;;2.90;1.02;;;;;;;12.85;100.00;102391.47;4955389;28;20051;-66
2023/06/01 01:10:29;;;;;;;2.88;1.08;;;;;;;12.82;100.00;102388.06;4954028;28;20039;-67
2023/06/01 01:13:20;;;;;;;4.15;1.23;;;;;;;13.00;100.00;102384.19;4953929;28;20078;-66
2023/06/01 01:16:00;;;;;;;3.60;1.17;;;;;;;12.95;100.00;102384.28;4952441;28;20718;-67
2023/06/01 01:18:41;;;;;;;5.40;1.35;;;;;;;12.76;100.00;102380.31;4952622;28;20138;-67
2023/06/01 01:21:22;;;;;;;4.63;1.08;;;;;;;12.83;100.00;102374.03;4952392;29;20489;-66
2023/06/01 01:24:02;;;;;;;1.85;0.90;;;;;;;12.90;100.00;102388.78;4952560;29;20074;-66
2023/06/01 01:27:08;;;;;;;3.83;1.10;;;;;;;13.01;100.00;102380.66;4950837;28;20493;-67
2023/06/01 01:29:37;;;;;;;2.28;0.90;;;;;;;12.79;100.00;102380.25;4946297;28;20065;-67
2023/06/01 01:32:05;;;;;;;4.10;1.02;;;;;;;12.53;100.00;102363.22;4952314;29;20482;-67
2023/06/01 01:34:32;;;;;;;4.70;1.13;;;;;;;12.70;100.00;102383.94;4952391;28;20388;-67
2023/06/01 01:37:00;;;;;;;4.50;1.40;;;;;;;12.48;100.00;102360.72;4951461;28;20051;-67
2023/06/01 01:39:27;;;;;;;2.83;0.82;;;;;;;12.60;100.00;102382.38;4952217;28;20051;-67
2023/06/01 01:41:54;;;;;;;4.75;1.50;;;;;;;12.57;100.00;102385.06;4951693;28;20082;-67
2023/06/01 01:44:21;;;;;;;3.03;1.20;;;;;;;12.42;100.00;102376.59;4946018;29;20561;-67
2023/06/01 01:46:59;;;;;;;3.53;1.10;;;;;;;12.44;100.00;102371.31;4950765;28;20054;-67
2023/06/01 01:49:35;;;;;;;3.03;1.00;;;;;;;12.55;100.00;102374.56;4949303;29;20044;-67
2023/06/01 01:52:02;;;;;;;2.95;1.00;;;;;;;12.50;100.00;102376.41;4951256;28;20047;-67
2023/06/01 01:54:29;;;;;;;3.50;1.00;;;;;;;12.31;100.00;102371.53;4951527;29;20101;-67
2023/06/01 01:57:00;;;;;;;5.07;1.40;;;;;;;12.16;100.00;102371.81;4951420;28;20504;-66
2023/06/01 01:59:27;;;;;;;4.65;1.13;;;;;;;12.25;100.00;102369.03;4951529;28;20793;-66
2023/06/01 02:01:55;;;;;;;2.63;1.10;;;;;;;11.70;100.00;102314.84;4950958;28;20082;-66
2023/06/01 02:04:22;;;;;;;3.78;1.05;;;;;;;12.08;100.00;102373.72;4957951;28;20059;-66
2023/06/01 02:06:49;;;;;;;6.95;1.95;;;;;;;12.05;100.00;102368.53;4949804;28;20055;-66
2023/06/01 02:09:16;;;;;;;2.13;1.00;;;;;;;12.03;100.00;102370.31;4951885;28;20066;-66
2023/06/01 02:11:43;;;;;;;4.70;1.00;;;;;;;11.99;100.00;102372.13;4951179;28;20055;-67
2023/06/01 02:14:10;;;;;;;5.32;1.30;;;;;;;12.02;100.00;102374.66;4951340;29;20066;-66
2023/06/01 02:16:37;;;;;;;5.75;1.30;;;;;;;12.08;100.00;102368.47;4950642;29;20049;-66
2023/06/01 02:19:04;;;;;;;5.30;1.45;;;;;;;12.04;100.00;102362.41;4904938;29;1336446;-67
2023/06/01 02:21:31;;;;;;;2.40;0.90;;;;;;;11.91;100.00;102358.25;4952117;29;20442;-66
2023/06/01 02:24:05;;;;;;;3.92;1.15;;;;;;;12.15;100.00;102364.84;4951582;29;20051;-66
2023/06/01 02:26:32;;;;;;;4.55;1.10;;;;;;;12.21;100.00;102355.97;4952618;28;20050;-66
2023/06/01 02:28:59;;;;;;;2.40;1.15;;;;;;;12.33;100.00;102372.38;4950544;28;20098;-66
2023/06/01 02:31:26;;;;;;;2.05;1.00;;;;;;;12.30;100.00;102375.03;4952814;28;20057;-66
2023/06/01 02:33:52;;;;;;;4.38;1.10;;;;;;;12.11;100.00;102363.16;4951167;28;20047;-66
2023/06/01 02:36:20;;;;;;;2.90;0.90;;;;;;;12.15;100.00;102368.31;4940934;29;20058;-66
2023/06/01 02:38:47;;;;;;;4.97;1.10;;;;;;;12.31;100.00;102360.16;4951938;29;20098;-66
2023/06/01 02:41:14;;;;;;;1.80;0.90;;;;;;;12.31;100.00;102358.41;4951075;28;20062;-66
2023/06/01 02:43:41;;;;;;;3.17;1.20;;;;;;;12.24;100.00;102355.94;4951811;29;20146;-66
2023/06/01 02:46:08;;;;;;;4.18;1.25;;;;;;;12.03;100.00;102359.81;4951357;28;20053;-66
2023/06/01 02:48:34;;;;;;;4.30;0.90;;;;;;;11.95;100.00;102355.56;4951987;29;20073;-67
2023/06/01 02:51:01;;;;;;;3.58;1.10;;;;;;;11.81;100.00;102340.91;4952457;28;20061;-66
2023/06/01 02:53:28;;;;;;;4.45;0.98;;;;;;;11.80;100.00;102345.28;4952351;28;20073;-66
2023/06/01 02:55:55;;;;;;;2.65;0.93;;;;;;;11.79;100.00;102348.78;4953922;28;20057;-66
2023/06/01 02:58:22;;;;;;;3.85;0.85;;;;;;;11.92;100.00;102349.50;4957273;28;20051;-67
2023/06/01 03:00:50;;;;;;;3.83;1.13;;;;;;;12.02;100.00;102348.41;4960844;28;20448;-67
2023/06/01 03:03:17;;;;;;;1.67;0.73;;;;;;;12.06;100.00;102349.25;4953979;28;20052;-65
2023/06/01 03:05:44;;;;;;;2.28;0.90;;;;;;;12.04;100.00;102346.66;4949897;29;20051;-67
2023/06/01 03:08:11;;;;;;;2.22;0.80;;;;;;;12.16;100.00;102353.44;4952166;28;20126;-66
2023/06/01 03:10:38;;;;;;;1.98;0.95;;;;;;;12.09;100.00;102346.56;4951983;28;20043;-66
2023/06/01 03:13:04;;;;;;;2.63;1.00;;;;;;;12.14;100.00;102349.97;4950932;28;20051;-66
2023/06/01 03:15:31;;;;;;;1.83;0.80;;;;;;;12.18;100.00;102356.03;4951151;28;20078;-66
2023/06/01 03:17:58;;;;;;;1.65;0.80;;;;;;;12.20;100.00;102339.38;4951155;28;20055;-66
2023/06/01 03:20:25;;;;;;;1.92;0.90;;;;;;;12.15;100.00;102356.97;4950290;28;20043;-66
2023/06/01 03:22:51;;;;;;;2.63;0.95;;;;;;;12.15;100.00;102355.19;4951251;29;20055;-66
2023/06/01 03:25:18;;;;;;;1.38;0.80;;;;;;;12.06;100.00;102351.88;4950514;28;20062;-66
2023/06/01 03:27:45;;;;;;;2.83;0.98;;;;;;;11.99;100.00;102347.59;4950878;28;20395;-66
2023/06/01 03:30:12;;;;;;;3.05;0.90;;;;;;;12.04;100.00;102341.41;4951214;29;20166;-66
2023/06/01 03:32:40;;;;;;;2.60;0.90;;;;;;;11.98;100.00;102357.25;4952499;28;20043;-66
2023/06/01 03:35:08;;;;;;;3.90;0.90;;;;;;;11.84;100.00;102346.94;4950658;28;20143;-65
2023/06/01 03:37:36;;;;;;;3.05;1.08;;;;;;;12.07;100.00;102354.47;4951826;29;20055;-67
2023/06/01 03:40:10;;;;;;;3.33;1.13;;;;;;;12.08;100.00;102353.56;4951196;28;20059;-66
2023/06/01 03:42:41;;;;;;;2.30;0.80;;;;;;;12.03;100.00;102344.06;4951255;29;20065;-66
2023/06/01 03:45:09;;;;;;;5.18;1.10;;;;;;;11.99;100.00;102331.84;4951509;28;20051;-66
2023/06/01 03:47:36;;;;;;;3.00;0.90;;;;;;;11.95;100.00;102345.06;4950949;28;20055;-66
2023/06/01 03:50:06;;;;;;;3.58;1.02;;;;;;;11.78;100.00;102341.81;4949938;28;20561;-66
2023/06/01 03:52:33;;;;;;;1.92;1.00;;;;;;;11.88;100.00;102332.91;4950002;29;20445;-66
2023/06/01 03:55:02;;;;;;;4.93;1.13;;;;;;;11.86;100.00;102341.69;4950632;28;20082;-66
2023/06/01 03:57:29;;;;;;;2.15;0.90;;;;;;;11.95;100.00;102338.91;4951024;29;20082;-66
2023/06/01 03:59:56;;;;;;;3.88;1.00;;;;;;;11.91;100.00;102327.63;4950532;29;20138;-66
2023/06/01 04:02:23;;;;;;;3.35;1.17;;;;;;;12.05;100.00;102331.75;4950671;29;20047;-66
2023/06/01 04:04:51;;;;;;;2.17;0.80;;;;;;;11.95;100.00;102331.94;4950428;29;20114;-66
2023/06/01 04:07:21;;;;;;;4.82;1.20;;;;;;;12.01;100.00;102332.72;4950876;28;20062;-67
2023/06/01 04:09:48;;;;;;;4.00;0.93;;;;;;;11.95;100.00;102347.69;4951527;28;20447;-66
2023/06/01 04:12:15;;;;;;;3.67;1.00;;;;;;;11.94;100.00;102334.59;4950275;28;20059;-66
2023/06/01 04:14:42;;;;;;;5.70;0.80;;;;;;;12.09;100.00;102344.81;4950000;29;20047;-66
2023/06/01 04:17:09;;;;;;;1.75;0.90;;;;;;;11.83;100.00;102339.09;4953039;28;20061;-66
2023/06/01 04:19:38;;;;;;;3.20;0.77;;;;;;;11.57;100.00;102335.19;4953153;29;20625;-66
2023/06/01 04:22:05;;;;;;;1.60;0.80;;;;;;;11.57;100.00;102335.19;4954858;29;20055;-66
2023/06/01 04:24:32;;;;;;;4.90;0.90;;;;;;;11.55;100.00;102326.47;4954394;28;20051;-67
2023/06/01 04:26:59;;;;;;;3.50;0.88;;;;;;;11.56;100.00;102333.44;4953905;29;20074;-66
2023/06/01 04:29:26;;;;;;;3.20;0.80;;;;;;;11.55;100.00;102332.56;4954247;29;20138;-66
2023/06/01 04:31:54;;;;;;;2.08;0.90;;;;;;;11.65;100.00;102337.66;4953254;29;20054;-66
2023/06/01 04:34:23;;;;;;;1.08;0.80;;;;;;;11.65;100.00;102332.41;4955014;28;20433;-65
2023/06/01 04:36:51;;;;;;;2.10;0.70;;;;;;;11.71;100.00;102332.31;4960660;28;20055;-65
2023/06/01 04:39:18;;;;;;;3.65;1.02;;;;;;;11.85;100.00;102335.56;4954347;29;20058;-66
2023/06/01 04:41:45;;;;;;;2.38;1.00;;;;;;;11.67;100.00;102331.50;4953342;28;20134;-66
2023/06/01 04:44:13;;;;;;;1.88;0.90;;;;;;;11.69;100.00;102332.34;4951835;28;20066;-66
2023/06/01 04:46:40;;;;;;;2.05;0.95;;;;;;;11.65;100.00;102333.31;4952519;28;20057;-66
2023/06/01 04:49:08;;;;;;;2.50;0.98;;;;;;;11.73;100.00;102326.16;4952807;29;20055;-65
2023/06/01 04:51:36;;;;;;;2.05;0.80;;;;;;;11.85;100.00;102332.09;4953430;28;20047;-66
2023/06/01 04:54:04;;;;;;;2.78;1.10;;;;;;;11.96;100.00;102341.53;4952766;29;20110;-66
2023/06/01 04:56:31;;;;;;;2.10;1.00;;;;;;;11.99;100.00;102327.50;4952660;28;20051;-66
2023/06/01 04:58:58;;;;;;;1.48;0.80;;;;;;;12.04;100.00;102323.03;4952976;28;20086;-66
2023/06/01 05:01:26;;;;;;;4.32;1.00;;;;;;;11.84;100.00;102333.84;4952824;29;20130;-66
2023/06/01 05:03:55;;;;;;;1.95;0.82;;;;;;;11.86;100.00;102326.78;4967717;28;20066;-66
2023/06/01 05:06:23;;;;;;;1.30;0.75;;;;;;;11.76;100.00;102346.25;4953467;29;20054;-66
2023/06/01 05:08:49;;;;;;;2.63;0.90;;;;;;;11.64;100.00;102342.06;4953378;28;20055;-66
2023/06/01 05:11:16;;;;;;;3.88;1.00;;;;;;;11.56;100.00;102333.44;4953191;28;20049;-66
2023/06/01 05:13:44;;;;;;;2.50;0.80;;;;;;;11.57;100.00;102329.94;4952624;28;20059;-66
2023/06/01 05:16:11;;;;;;;1.95;0.82;;;;;;;11.61;100.00;102333.38;4952086;28;20051;-66
2023/06/01 05:18:38;;;;;;;3.03;1.02;;;;;;;11.68;100.00;102340.25;4952751;28;20047;-66
2023/06/01 05:21:05;;;;;;;3.00;0.80;;;;;;;11.66;100.00;102344.66;4954757;28;20516;-66
2023/06/01 05:23:32;;;;;;;3.47;1.15;;;;;;;11.78;100.00;102333.94;4965357;28;20053;-66
2023/06/01 05:26:02;;;;;;;1.88;1.00;;;;;;;11.96;100.00;102345.91;4956618;28;20421;-66
2023/06/01 05:28:30;;;;;;;2.30;0.90;;;;;;;11.87;100.00;102346.91;4954721;28;20469;-66
2023/06/01 05:31:00;;;;;;;2.50;1.10;;;;;;;11.75;100.00;102339.25;4967066;28;20052;-66
2023/06/01 05:33:27;;;;;;;2.40;0.93;;;;;;;11.44;100.00;102339.75;4959061;28;20051;-66
2023/06/01 05:35:54;;;;;;;3.20;1.00;;;;;;;11.75;100.00;102344.50;4951349;28;20061;-66
2023/06/01 05:38:21;;;;;;;4.00;0.98;;;;;;;11.83;100.00;102346.97;4969207;28;20052;-66
2023/06/01 05:40:48;;;;;;;2.63;1.00;;;;;;;11.78;100.00;102345.31;4959679;28;20433;-66
2023/06/01 05:43:15;;;;;;;5.38;1.02;;;;;;;11.64;100.00;102352.53;4952126;28;20078;-66
2023/06/01 05:45:42;;;;;;;2.80;1.10;;;;;;;11.75;100.00;102336.63;4953922;28;20055;-66
2023/06/01 05:48:08;;;;;;;4.20;1.20;;;;;;;11.61;100.00;102339.47;4942327;29;20146;-66
2023/06/01 05:50:35;;;;;;;2.60;0.85;;;;;;;11.56;100.00;102351.78;4952537;28;20475;-66
2023/06/01 05:53:02;;;;;;;4.72;1.25;;;;;;;11.36;100.00;102339.84;4955618;28;20165;-66
2023/06/01 05:55:29;;;;;;;6.13;1.27;;;;;;;11.31;100.00;102340.81;4954128;28;20055;-66
2023/06/01 05:57:55;;;;;;;3.42;1.20;;;;;;;11.32;100.00;102343.41;4955735;28;20155;-66
2023/06/01 06:00:23;;;;;;;4.05;1.20;;;;;;;11.38;100.00;102343.34;4953663;28;20051;-66
2023/06/01 06:02:50;;;;;;;3.65;1.05;;;;;;;11.44;100.00;102338.88;4961106;28;20069;-66
2023/06/01 06:05:17;;;;;;;4.28;1.20;;;;;;;11.49;100.00;102316.94;4953565;28;20054;-66
2023/06/01 06:07:43;;;;;;;5.05;1.30;;;;;;;11.67;100.00;102341.13;4953348;28;20047;-66
2023/06/01 06:10:11;;;;;;;4.47;1.33;;;;;;;11.75;100.00;102334.00;4956090;28;20057;-66
2023/06/01 06:12:38;;;;;;;2.95;1.33;;;;;;;11.69;100.00;102334.97;4952688;28;20512;-66
2023/06/01 06:15:05;;;;;;;5.80;1.10;;;;;;;12.01;100.00;102346.72;4950583;29;20073;-67
2023/06/01 06:17:32;;;;;;;5.22;1.85;;;;;;;11.83;100.00;102344.34;4953729;28;20473;-66
2023/06/01 06:19:59;;;;;;;7.97;1.65;;;;;;;11.73;100.00;102338.41;4950212;28;20489;-67
2023/06/01 06:22:26;;;;;;;6.18;1.55;;;;;;;11.98;100.00;102341.50;4952588;28;20130;-66
2023/06/01 06:24:53;;;;;;;4.95;1.35;;;;;;;11.99;100.00;102335.38;4953675;28;20055;-67
2023/06/01 06:27:19;;;;;;;6.82;1.38;;;;;;;11.91;100.00;102346.00;4962648;28;20134;-67
2023/06/01 06:29:46;;;;;;;8.43;1.55;;;;;;;11.79;100.00;102335.66;4958881;28;20061;-66
2023/06/01 06:32:13;;;;;;;6.95;1.55;;;;;;;11.77;100.00;102347.94;4967234;28;20061;-67
2023/06/01 06:34:39;;;;;;;5.45;1.50;;;;;;;11.75;100.00;102342.72;4956145;28;20704;-67
2023/06/01 06:37:07;;;;;;;6.55;1.20;;;;;;;11.88;100.00;102350.41;4959293;28;20404;-66
2023/06/01 06:39:34;;;;;;;6.82;1.58;;;;;;;11.67;100.00;102352.50;4955034;28;20057;-66
2023/06/01 06:42:03;;;;;;;7.15;1.50;;;;;;;11.63;100.00;102349.94;4952569;28;20073;-66
2023/06/01 06:44:31;;;;;;;7.68;2.67;;;;;;;11.38;100.00;102345.97;4951915;29;20066;-66
2023/06/01 06:47:00;;;;;;;5.28;1.60;;;;;;;11.67;100.00;102352.50;4951288;29;20123;-66
2023/06/01 06:49:28;;;;;;;9.20;1.95;;;;;;;11.95;100.00;102357.31;4951735;29;20416;-66
2023/06/01 06:51:55;;;;;;;9.98;1.70;;;;;;;11.99;100.00;102356.38;4951580;29;20058;-66
2023/06/01 06:54:22;;;;;;;6.95;1.60;;;;;;;12.19;100.00;102357.78;4953728;28;20055;-66
2023/06/01 06:56:49;;;;;;;7.68;2.03;;;;;;;12.11;100.00;102355.25;4949569;28;20061;-66
2023/06/01 06:59:16;;;;;;;5.72;1.90;;;;;;;12.33;100.00;102358.38;4956696;28;20421;-67
2023/06/01 07:01:43;;;;;;;7.47;1.80;;;;;;;12.44;100.00;102358.16;4955526;28;20055;-66
2023/06/01 07:04:10;;;;;;;8.32;2.15;;;;;;;12.39;100.00;102350.34;4962382;28;20047;-67
2023/06/01 07:06:37;;;;;;;7.97;1.58;;;;;;;12.25;100.00;102373.41;4960265;28;20501;-66
2023/06/01 07:09:05;;;;;;;10.23;1.90;;;;;;;12.11;100.00;102363.16;4955079;28;20058;-66
2023/06/01 07:11:32;;;;;;;12.32;2.63;;;;;;;12.13;100.00;102364.88;4953827;28;20066;-66
2023/06/01 07:13:59;;;;;;;7.57;1.40;;;;;;;12.14;100.00;102369.19;4962476;28;20133;-66
2023/06/01 07:16:28;;;;;;;4.03;1.30;;;;;;;12.25;100.00;102373.41;4956197;28;20051;-66
2023/06/01 07:18:56;;;;;;;9.82;1.60;;;;;;;12.41;100.00;102368.72;4948271;28;20098;-67
2023/06/01 07:21:23;;;;;;;9.73;1.77;;;;;;;12.51;100.00;102371.13;4960480;28;20047;-66
2023/06/01 07:23:50;;;;;;;9.52;1.60;;;;;;;12.40;100.00;102365.25;4959934;28;20059;-66
2023/06/01 07:26:16;;;;;;;8.60;2.03;;;;;;;12.13;100.00;102378.00;4935806;28;20101;-66
2023/06/01 07:28:43;;;;;;;6.00;1.30;;;;;;;12.00;100.00;102373.84;4959258;28;20049;-67
2023/06/01 07:31:10;;;;;;;6.95;1.50;;;;;;;12.15;100.00;102370.09;4939937;28;20050;-66
2023/06/01 07:33:37;;;;;;;10.98;1.60;;;;;;;12.05;100.00;102379.88;4960607;28;20209;-66
2023/06/01 07:36:06;;;;;;;6.35;1.50;;;;;;;12.15;100.00;102380.59;4959978;28;20059;-66
2023/06/01 07:38:33;;;;;;;7.45;1.40;;;;;;;12.38;100.00;102379.28;4967691;28;20553;-66
2023/06/01 07:41:00;;;;;;;7.78;1.90;;;;;;;12.46;100.00;102370.34;4970139;28;20130;-66
2023/06/01 07:43:27;;;;;;;5.43;1.50;;;;;;;12.58;100.00;102376.28;4956481;28;20512;-66
2023/06/01 07:45:55;;;;;;;12.55;1.95;;;;;;;12.44;100.00;102382.66;4955992;28;20602;-66
2023/06/01 07:48:22;;;;;;;8.52;1.67;;;;;;;12.34;100.00;102387.25;4952084;28;20047;-66
2023/06/01 07:50:50;;;;;;;7.57;1.80;;;;;;;12.47;100.00;102387.88;4951541;28;20047;-66
2023/06/01 07:53:18;;;;;;;10.18;2.17;;;;;;;12.40;100.00;102388.88;4956324;28;20051;-66
2023/06/01 07:55:45;;;;;;;10.82;1.75;;;;;;;12.52;100.00;102393.91;4956719;28;20083;-65
2023/06/01 07:58:12;;;;;;;6.80;1.55;;;;;;;12.37;100.00;102396.81;4954443;28;20147;-66
2023/06/01 08:00:39;;;;;;;9.35;1.63;;;;;;;12.32;100.00;102406.53;4954009;28;20051;-66
2023/06/01 08:03:06;;;;;;;7.25;2.30;;;;;;;12.39;100.00;102407.28;4962404;28;20162;-66
2023/06/01 08:05:36;;;;;;;8.77;2.03;;;;;;;12.51;100.00;102397.41;4958999;28;20517;-66
2023/06/01 08:08:05;;;;;;;8.98;1.88;;;;;;;12.45;100.00;102405.44;4954571;28;20410;-66
2023/06/01 08:10:32;;;;;;;9.07;1.83;;;;;;;12.42;100.00;102407.25;4954970;28;20043;-67
2023/06/01 08:12:58;;;;;;;10.20;2.75;;;;;;;12.48;100.00;102404.50;4965778;28;20069;-66
2023/06/01 08:15:26;;;;;;;7.95;1.60;;;;;;;12.42;100.00;102418.59;4955579;28;20079;-66
2023/06/01 08:17:53;;;;;;;12.63;2.05;;;;;;;12.45;100.00;102410.69;4960013;28;20051;-68
2023/06/01 08:20:21;;;;;;;7.45;1.80;;;;;;;12.69;100.00;102426.88;4954166;28;20047;-67
2023/06/01 08:22:50;;;;;;;10.02;2.15;;;;;;;12.54;100.00;102422.78;4964813;28;20063;-68
2023/06/01 08:25:20;;;;;;;11.93;2.30;;;;;;;12.09;100.00;102426.22;4958165;28;20047;-69
2023/06/01 08:27:47;;;;;;;9.15;2.08;;;;;;;12.01;100.00;102408.84;4964799;28;20134;-69
2023/06/01 08:30:14;;;;;;;11.75;2.75;;;;;;;12.02;100.00;102411.44;4965261;28;20264;-69
2023/06/01 08:32:40;;;;;;;7.25;1.63;;;;;;;12.37;100.00;102411.72;4968968;28;20057;-68
2023/06/01 08:35:08;;;;;;;7.38;1.40;;;;;;;12.74;100.00;102417.13;4962955;28;20467;-69
2023/06/01 08:37:36;;;;;;;9.63;1.92;;;;;;;12.30;100.00;102403.06;4960171;28;20086;-68
2023/06/01 08:40:08;;;;;;;7.75;1.85;;;;;;;12.41;100.00;102410.75;4961202;28;20466;-69
2023/06/01 08:42:52;;;;;;;6.13;1.95;;;;;;;12.68;100.00;102412.00;4957747;28;20047;-69
2023/06/01 08:45:19;;;;;;;8.60;2.28;;;;;;;12.85;100.00;102402.00;4949111;28;20405;-69
2023/06/01 08:47:46;;;;;;;7.57;1.83;;;;;;;12.71;100.00;102412.81;4963191;28;20053;-69
2023/06/01 08:50:15;;;;;;;6.85;1.50;;;;;;;12.57;100.00;102412.22;4950912;28;20090;-69
2023/06/01 08:52:45;;;;;;;10.25;2.17;;;;;;;12.49;100.00;102414.97;4961200;28;20206;-69
2023/06/01 08:55:14;;;;;;;9.88;1.85;;;;;;;12.72;100.00;102424.19;4951904;28;20189;-68
2023/06/01 08:57:41;;;;;;;3.85;1.48;;;;;;;12.18;100.00;102419.91;4956764;28;20513;-68
2023/06/01 09:00:13;;;;;;;7.47;1.65;;;;;;;11.96;100.00;102416.78;4956446;28;20055;-69
2023/06/01 09:02:42;;;;;;;6.63;1.63;;;;;;;12.22;100.00;102420.75;4964872;28;20142;-69
2023/06/01 09:05:11;;;;;;;10.50;1.63;;;;;;;12.18;100.00;102424.31;4957472;28;20054;-69
2023/06/01 09:07:38;;;;;;;2.85;1.08;;;;;;;12.10;100.00;102422.66;4953811;28;20047;-68
2023/06/01 09:10:06;;;;;;;6.90;2.00;;;;;;;12.19;100.00;102420.78;4951878;29;20486;-69
2023/06/01 09:12:33;;;;;;;7.55;1.73;;;;;;;12.19;100.00;102416.41;4953346;28;20055;-69
2023/06/01 09:15:11;;;;;;;7.18;1.67;;;;;;;12.32;100.00;102420.56;4951884;29;20093;-68
2023/06/01 09:17:39;;;;;;;4.10;1.65;;;;;;;12.26;100.00;102412.78;4953024;28;20420;-68
2023/06/01 09:20:12;;;;;;;7.93;1.77;;;;;;;12.19;100.00;102426.91;4952893;29;20051;-69
2023/06/01 09:22:44;;;;;;;7.63;1.67;;;;;;;12.15;100.00;102414.72;4953322;28;20051;-69
2023/06/01 09:25:15;;;;;;;6.97;1.50;;;;;;;12.56;100.00;102426.25;4952793;29;20075;-69
2023/06/01 09:27:43;;;;;;;6.85;1.60;;;;;;;12.57;100.00;102429.72;4953405;28;20125;-68
2023/06/01 09:30:10;;;;;;;11.15;1.80;;;;;;;12.67;100.00;102428.66;4953015;28;20050;-68
2023/06/01 09:32:37;;;;;;;10.85;1.73;;;;;;;12.39;100.00;102420.44;4955697;28;20481;-69
2023/06/01 09:35:07;;;;;;;6.63;1.75;;;;;;;12.58;100.00;102419.19;4952081;29;20055;-69
2023/06/01 09:37:36;;;;;;;8.40;1.63;;;;;;;12.37;100.00;102420.44;4953131;28;20059;-69
2023/06/01 09:40:19;;;;;;;5.20;1.60;;;;;;;12.38;100.00;102421.31;4953246;28;20054;-68
2023/06/01 09:42:49;;;;;;;9.82;1.92;;;;;;;12.41;100.00;102410.75;4953297;28;20043;-69
2023/06/01 09:45:21;;;;;;;8.15;1.50;;;;;;;12.57;100.00;102419.22;4952334;28;20130;-69
2023/06/01 09:47:49;;;;;;;7.80;1.88;;;;;;;12.44;100.00;102422.06;4953306;29;20421;-68
2023/06/01 09:50:36;;;;;;;8.23;2.00;;;;;;;12.54;100.00;102407.00;4952104;28;20066;-69
2023/06/01 09:53:06;;;;;;;10.35;1.98;;;;;;;12.45;100.00;102421.19;4952746;28;20058;-69
2023/06/01 09:55:33;;;;;;;7.65;1.40;;;;;;;12.75;100.00;102418.88;4952573;29;20170;-70
2023/06/01 09:58:21;;;;;;;8.13;1.98;;;;;;;12.56;100.00;102423.63;4954526;28;20541;-68
2023/06/01 10:00:50;;;;;;;13.35;2.40;;;;;;;12.15;100.00;102423.47;4944181;28;20493;-69
2023/06/01 10:03:21;;;;;;;8.30;1.77;;;;;;;12.41;100.00;102421.25;4957110;28;20053;-69
2023/06/01 10:05:49;;;;;;;7.90;1.88;;;;;;;12.76;100.00;102417.09;4956276;28;20474;-69
2023/06/01 10:08:17;;;;;;;6.68;1.60;;;;;;;12.82;100.00;102423.09;4958600;28;20067;-68
2023/06/01 10:10:47;;;;;;;10.48;2.08;;;;;;;12.70;100.00;102428.59;4966421;28;20055;-69
2023/06/01 10:13:15;;;;;;;10.82;2.28;;;;;;;12.62;100.00;102430.50;4952747;28;20159;-69
2023/06/01 10:15:42;;;;;;;6.10;1.88;;;;;;;12.57;100.00;102420.09;4954921;28;20499;-69
2023/06/01 10:18:09;;;;;;;8.18;2.00;;;;;;;12.27;100.00;102416.25;4952253;28;20051;-69
2023/06/01 10:20:37;;;;;;;6.38;1.65;;;;;;;12.50;100.00;102432.47;4951838;29;20191;-68
2023/06/01 10:23:05;;;;;;;7.78;1.80;;;;;;;12.67;100.00;102423.41;4952754;28;20055;-68
2023/06/01 10:25:46;;;;;;;9.27;1.92;;;;;;;12.68;100.00;102431.25;4951696;28;20054;-69
2023/06/01 10:28:15;;;;;;;6.88;1.88;;;;;;;12.66;100.00;102429.53;4952809;28;20056;-69
2023/06/01 10:30:42;;;;;;;9.30;2.08;;;;;;;12.85;100.00;102419.53;4952151;28;20561;-69
2023/06/01 10:33:09;;;;;;;9.25;2.15;;;;;;;12.99;100.00;102425.38;4956772;28;20050;-69
2023/06/01 10:35:42;;;;;;;7.95;2.00;;;;;;;12.93;100.00;102436.03;4954161;28;20051;-69
2023/06/01 10:38:14;;;;;;;8.82;2.05;;;;;;;13.00;100.00;102428.91;4950537;29;20449;-69
2023/06/01 10:40:43;;;;;;;10.13;2.43;;;;;;;12.78;100.00;102433.69;4951188;29;20083;-68
2023/06/01 10:43:38;;;;;;;12.30;2.17;;;;;;;12.93;100.00;102443.91;4951021;28;20151;-69
2023/06/01 10:46:33;;;;;;;20.45;2.47;;;;;;;12.92;100.00;102436.91;4952499;28;20074;-69
2023/06/01 10:49:00;;;;;;;9.00;2.15;;;;;;;12.93;100.00;102432.53;4963055;28;20055;-69
2023/06/01 10:51:28;;;;;;;8.23;1.75;;;;;;;13.15;100.00;102435.59;4951689;28;20039;-69
2023/06/01 10:54:28;;;;;;;10.10;2.05;;;;;;;12.87;100.00;102433.50;4951822;28;20047;-69
2023/06/01 10:57:22;;;;;;;11.40;2.42;;;;;;;12.88;100.00;102435.25;4959605;28;20059;-69
2023/06/01 11:00:09;;;;;;;9.77;2.03;;;;;;;12.87;100.00;102425.63;4950561;28;20377;-69
2023/06/01 11:02:54;;;;;;;12.77;2.72;;;;;;;12.46;100.00;102438.66;4961631;28;20047;-68
2023/06/01 11:05:36;;;;;;;7.45;2.25;;;;;;;12.40;100.00;102441.41;4950338;29;20043;-69
2023/06/01 11:08:28;;;;;;;27.80;2.70;;;;;;;12.77;100.00;102439.88;4944375;28;20086;-69
2023/06/01 11:11:00;;;;;;;12.27;2.72;;;;;;;12.53;100.00;102440.28;4946103;28;20066;-69
2023/06/01 11:13:35;;;;;;;13.18;2.70;;;;;;;12.57;100.00;102434.97;4953074;28;20074;-69
2023/06/01 11:16:13;;;;;;;12.43;2.67;;;;;;;12.61;100.00;102453.31;4951236;29;20151;-68
2023/06/01 11:18:41;;;;;;;8.70;2.15;;;;;;;12.68;100.00;102449.66;4954593;28;20055;-69
2023/06/01 11:21:17;;;;;;;10.27;2.30;;;;;;;12.73;100.00;102433.81;4950665;29;20047;-69
2023/06/01 11:23:45;;;;;;;9.38;1.95;;;;;;;12.94;100.00;102436.88;4952714;28;20083;-69
2023/06/01 11:26:17;;;;;;;11.38;2.85;;;;;;;12.68;100.00;102448.81;4952705;28;20342;-68